sensor_id;sensor_type;location;lat;lon;timestamp;temperature;humidity
75517;DHT22;64097;52.548;13.406;2022-11-20T06:02:50;7.30;64.80
75517;DHT22;64097;52.548;13.406;2022-11-20T06:05:15;7.30;64.80
75517;DHT22;64097;52.548;13.406;2022-11-20T06:07:42;7.30;64.00
75517;DHT22;64097;52.548;13.406;2022-11-20T06:10:08;7.30;63.80
75517;DHT22;64097;52.548;13.406;2022-11-20T06:12:33;7.30;63.80
75517;DHT22;64097;52.548;13.406;2022-11-20T06:14:59;7.30;64.10
75517;DHT22;64097;52.548;13.406;2022-11-20T06:17:25;7.30;64.50
75517;DHT22;64097;52.548;13.406;2022-11-20T06:19:51;7.30;64.80
75517;DHT22;64097;52.548;13.406;2022-11-20T06:22:16;7.30;64.80
75517;DHT22;64097;52.548;13.406;2022-11-20T06:24:42;7.30;64.90
75517;DHT22;64097;52.548;13.406;2022-11-20T06:27:08;7.40;64.90
75517;DHT22;64097;52.548;13.406;2022-11-20T06:29:33;7.40;64.20
75517;DHT22;64097;52.548;13.406;2022-11-20T06:32:00;7.40;64.20
75517;DHT22;64097;52.548;13.406;2022-11-20T06:34:26;7.40;64.10
75517;DHT22;64097;52.548;13.406;2022-11-20T06:36:51;7.40;64.40
75517;DHT22;64097;52.548;13.406;2022-11-20T06:39:17;7.40;63.80
75517;DHT22;64097;52.548;13.406;2022-11-20T06:41:43;7.40;64.10
75517;DHT22;64097;52.548;13.406;2022-11-20T06:44:09;7.40;64.20
75517;DHT22;64097;52.548;13.406;2022-11-20T06:46:34;7.40;64.00
75517;DHT22;64097;52.548;13.406;2022-11-20T06:49:00;7.40;64.20
75517;DHT22;64097;52.548;13.406;2022-11-20T06:51:26;7.40;64.10
75517;DHT22;64097;52.548;13.406;2022-11-20T06:53:51;7.40;64.20
75517;DHT22;64097;52.548;13.406;2022-11-20T06:56:17;7.40;63.70
75517;DHT22;64097;52.548;13.406;2022-11-20T06:58:43;7.40;63.50
75517;DHT22;64097;52.548;13.406;2022-11-20T07:01:13;7.40;63.80
75517;DHT22;64097;52.548;13.406;2022-11-20T07:03:40;7.40;64.00
75517;DHT22;64097;52.548;13.406;2022-11-20T07:06:06;7.40;64.10
75517;DHT22;64097;52.548;13.406;2022-11-20T07:08:33;7.40;64.20
75517;DHT22;64097;52.548;13.406;2022-11-20T07:11:01;7.40;63.50
75517;DHT22;64097;52.548;13.406;2022-11-20T07:13:30;7.40;63.40
75517;DHT22;64097;52.548;13.406;2022-11-20T07:16:00;7.40;63.90
75517;DHT22;64097;52.548;13.406;2022-11-20T07:18:26;7.40;63.30
75517;DHT22;64097;52.548;13.406;2022-11-20T07:20:53;7.40;63.80
75517;DHT22;64097;52.548;13.406;2022-11-20T07:23:18;7.40;63.50
75517;DHT22;64097;52.548;13.406;2022-11-20T07:25:44;7.40;63.70
75517;DHT22;64097;52.548;13.406;2022-11-20T07:28:10;7.40;63.70
75517;DHT22;64097;52.548;13.406;2022-11-20T07:30:36;7.40;63.30
75517;DHT22;64097;52.548;13.406;2022-11-20T07:33:02;7.40;63.40
75517;DHT22;64097;52.548;13.406;2022-11-20T07:35:27;7.40;63.30
75517;DHT22;64097;52.548;13.406;2022-11-20T07:37:53;7.40;63.70
75517;DHT22;64097;52.548;13.406;2022-11-20T07:40:19;7.40;63.80
75517;DHT22;64097;52.548;13.406;2022-11-20T07:42:52;7.40;63.10
75517;DHT22;64097;52.548;13.406;2022-11-20T07:45:19;7.50;63.60
75517;DHT22;64097;52.548;13.406;2022-11-20T07:47:46;7.50;63.80
75517;DHT22;64097;52.548;13.406;2022-11-20T07:50:12;7.50;63.60
75517;DHT22;64097;52.548;13.406;2022-11-20T07:52:38;7.50;62.80
75517;DHT22;64097;52.548;13.406;2022-11-20T07:55:04;7.50;63.10
75517;DHT22;64097;52.548;13.406;2022-11-20T07:57:30;7.50;63.30
75517;DHT22;64097;52.548;13.406;2022-11-20T07:59:56;7.50;62.90
75517;DHT22;64097;52.548;13.406;2022-11-20T08:02:22;7.50;62.80
75517;DHT22;64097;52.548;13.406;2022-11-20T08:04:47;7.50;62.90
75517;DHT22;64097;52.548;13.406;2022-11-20T08:07:13;7.50;63.10
75517;DHT22;64097;52.548;13.406;2022-11-20T08:09:39;7.50;62.40
75517;DHT22;64097;52.548;13.406;2022-11-20T08:12:04;7.50;61.60
75517;DHT22;64097;52.548;13.406;2022-11-20T08:14:49;7.40;61.50
75517;DHT22;64097;52.548;13.406;2022-11-20T08:17:14;7.40;61.70
75517;DHT22;64097;52.548;13.406;2022-11-20T08:19:40;7.40;62.10
75517;DHT22;64097;52.548;13.406;2022-11-20T08:22:06;7.40;62.10
75517;DHT22;64097;52.548;13.406;2022-11-20T08:24:31;7.40;61.30
75517;DHT22;64097;52.548;13.406;2022-11-20T08:26:58;7.40;61.00
75517;DHT22;64097;52.548;13.406;2022-11-20T08:29:25;7.40;61.20
75517;DHT22;64097;52.548;13.406;2022-11-20T08:31:51;7.40;61.30
75517;DHT22;64097;52.548;13.406;2022-11-20T08:34:17;7.40;61.90
75517;DHT22;64097;52.548;13.406;2022-11-20T08:36:43;7.40;61.90
75517;DHT22;64097;52.548;13.406;2022-11-20T08:39:12;7.40;61.20
75517;DHT22;64097;52.548;13.406;2022-11-20T08:41:37;7.40;61.00
75517;DHT22;64097;52.548;13.406;2022-11-20T08:44:05;7.40;61.50
75517;DHT22;64097;52.548;13.406;2022-11-20T08:46:39;7.40;61.40
75517;DHT22;64097;52.548;13.406;2022-11-20T08:49:08;7.50;61.70
75517;DHT22;64097;52.548;13.406;2022-11-20T08:51:35;7.50;61.30
75517;DHT22;64097;52.548;13.406;2022-11-20T08:54:01;7.50;61.20
75517;DHT22;64097;52.548;13.406;2022-11-20T08:56:27;7.50;61.40
75517;DHT22;64097;52.548;13.406;2022-11-20T08:58:53;7.60;61.40
75517;DHT22;64097;52.548;13.406;2022-11-20T09:01:19;7.60;61.20
75517;DHT22;64097;52.548;13.406;2022-11-20T09:03:45;7.60;60.10
75517;DHT22;64097;52.548;13.406;2022-11-20T09:06:11;7.60;60.40
75517;DHT22;64097;52.548;13.406;2022-11-20T09:08:37;7.60;60.90
75517;DHT22;64097;52.548;13.406;2022-11-20T09:11:03;7.60;60.50
75517;DHT22;64097;52.548;13.406;2022-11-20T09:13:30;7.60;60.50
75517;DHT22;64097;52.548;13.406;2022-11-20T09:15:58;7.60;60.40
75517;DHT22;64097;52.548;13.406;2022-11-20T09:18:24;7.60;60.50
75517;DHT22;64097;52.548;13.406;2022-11-20T09:20:50;7.60;60.40
75517;DHT22;64097;52.548;13.406;2022-11-20T09:23:16;7.60;60.30
75517;DHT22;64097;52.548;13.406;2022-11-20T09:25:42;7.60;60.50
75517;DHT22;64097;52.548;13.406;2022-11-20T09:28:09;7.60;60.70
75517;DHT22;64097;52.548;13.406;2022-11-20T09:30:35;7.70;60.80
75517;DHT22;64097;52.548;13.406;2022-11-20T09:33:01;7.70;60.50
75517;DHT22;64097;52.548;13.406;2022-11-20T09:35:26;7.70;60.70
75517;DHT22;64097;52.548;13.406;2022-11-20T09:37:52;7.80;60.10
75517;DHT22;64097;52.548;13.406;2022-11-20T09:45:59;7.80;59.80
75517;DHT22;64097;52.548;13.406;2022-11-20T09:56:08;7.90;60.40
75517;DHT22;64097;52.548;13.406;2022-11-20T09:58:41;8.00;60.60
75517;DHT22;64097;52.548;13.406;2022-11-20T10:06:47;8.10;59.60
75517;DHT22;64097;52.548;13.406;2022-11-20T10:17:19;8.30;59.20
75517;DHT22;64097;52.548;13.406;2022-11-20T10:25:20;8.20;58.60
75517;DHT22;64097;52.548;13.406;2022-11-20T10:30:20;8.10;59.00
75517;DHT22;64097;52.548;13.406;2022-11-20T10:33:03;8.10;59.20
75517;DHT22;64097;52.548;13.406;2022-11-20T10:38:44;8.20;58.80
75517;DHT22;64097;52.548;13.406;2022-11-20T10:41:21;8.20;59.20
75517;DHT22;64097;52.548;13.406;2022-11-20T10:44:16;8.20;59.20
75517;DHT22;64097;52.548;13.406;2022-11-20T10:47:04;8.30;59.20
75517;DHT22;64097;52.548;13.406;2022-11-20T10:49:31;8.30;59.30
75517;DHT22;64097;52.548;13.406;2022-11-20T11:00:11;8.20;58.60
75517;DHT22;64097;52.548;13.406;2022-11-20T11:02:54;8.30;59.20
75517;DHT22;64097;52.548;13.406;2022-11-20T11:08:34;8.40;59.40
75517;DHT22;64097;52.548;13.406;2022-11-20T11:13:40;8.60;59.10
75517;DHT22;64097;52.548;13.406;2022-11-20T11:16:24;8.60;59.00
75517;DHT22;64097;52.548;13.406;2022-11-20T11:18:50;8.70;58.90
75517;DHT22;64097;52.548;13.406;2022-11-20T11:21:26;8.70;57.90
75517;DHT22;64097;52.548;13.406;2022-11-20T11:24:03;8.70;57.90
75517;DHT22;64097;52.548;13.406;2022-11-20T11:26:29;8.70;58.00
75517;DHT22;64097;52.548;13.406;2022-11-20T11:29:00;8.70;57.70
75517;DHT22;64097;52.548;13.406;2022-11-20T11:31:28;8.60;57.80
75517;DHT22;64097;52.548;13.406;2022-11-20T11:34:07;8.60;57.70
75517;DHT22;64097;52.548;13.406;2022-11-20T11:36:35;8.50;58.00
75517;DHT22;64097;52.548;13.406;2022-11-20T11:39:02;8.50;58.10
75517;DHT22;64097;52.548;13.406;2022-11-20T11:41:31;8.60;58.30
75517;DHT22;64097;52.548;13.406;2022-11-20T11:44:24;8.60;58.50
75517;DHT22;64097;52.548;13.406;2022-11-20T11:47:29;8.60;58.30
75517;DHT22;64097;52.548;13.406;2022-11-20T11:50:07;8.60;58.00
75517;DHT22;64097;52.548;13.406;2022-11-20T11:55:15;8.60;58.20
75517;DHT22;64097;52.548;13.406;2022-11-20T12:00:35;8.60;59.00
75517;DHT22;64097;52.548;13.406;2022-11-20T12:03:18;8.60;59.20
75517;DHT22;64097;52.548;13.406;2022-11-20T12:05:51;8.70;59.40
75517;DHT22;64097;52.548;13.406;2022-11-20T12:14:20;8.70;59.60
75517;DHT22;64097;52.548;13.406;2022-11-20T12:16:28;8.60;60.70
75517;DHT22;64097;52.548;13.406;2022-11-20T12:18:55;8.70;60.10
75517;DHT22;64097;52.548;13.406;2022-11-20T12:21:50;8.60;60.20
75517;DHT22;64097;52.548;13.406;2022-11-20T12:43:29;8.20;60.00
75517;DHT22;64097;52.548;13.406;2022-11-20T13:08:11;8.40;59.60
75517;DHT22;64097;52.548;13.406;2022-11-20T13:10:49;8.40;59.80
75517;DHT22;64097;52.548;13.406;2022-11-20T13:18:21;8.40;59.60
75517;DHT22;64097;52.548;13.406;2022-11-20T13:20:47;8.50;59.80
75517;DHT22;64097;52.548;13.406;2022-11-20T13:23:25;8.50;59.90
75517;DHT22;64097;52.548;13.406;2022-11-20T13:26:21;8.50;60.00
75517;DHT22;64097;52.548;13.406;2022-11-20T13:29:03;8.60;59.10
75517;DHT22;64097;52.548;13.406;2022-11-20T13:31:33;8.50;59.10
75517;DHT22;64097;52.548;13.406;2022-11-20T13:34:01;8.60;59.30
75517;DHT22;64097;52.548;13.406;2022-11-20T13:36:29;8.60;59.40
75517;DHT22;64097;52.548;13.406;2022-11-20T13:38:56;8.60;59.20
75517;DHT22;64097;52.548;13.406;2022-11-20T13:41:36;8.60;59.00
75517;DHT22;64097;52.548;13.406;2022-11-20T13:44:23;8.60;58.90
75517;DHT22;64097;52.548;13.406;2022-11-20T13:46:50;8.60;58.80
75517;DHT22;64097;52.548;13.406;2022-11-20T13:49:38;8.60;58.90
75517;DHT22;64097;52.548;13.406;2022-11-20T13:52:26;8.60;59.10
